createdAt,value
2018-11-07T14:38:45.831Z,3.13
2018-11-07T14:41:14.398Z,2.13
2018-11-07T14:43:45.270Z,2.40
2018-11-07T14:46:13.979Z,2.40
2018-11-07T14:48:42.393Z,4.20
2018-11-07T14:51:10.908Z,4.43
2018-11-07T14:53:39.374Z,3.17
2018-11-07T14:56:07.964Z,4.80
2018-11-07T14:58:36.547Z,4.73
2018-11-07T15:01:05.021Z,2.40
2018-11-07T15:03:33.964Z,7.20
2018-11-07T15:06:03.447Z,5.77
2018-11-07T15:08:32.948Z,4.13
2018-11-07T15:11:01.448Z,4.67
2018-11-07T15:13:29.850Z,5.47
2018-11-07T15:15:58.288Z,6.00
2018-11-07T15:18:26.656Z,3.63
2018-11-07T15:20:55.065Z,4.67
2018-11-07T15:23:23.467Z,5.37
2018-11-07T15:25:51.832Z,5.17
2018-11-07T15:28:20.226Z,5.17
2018-11-07T15:30:48.608Z,8.73
2018-11-07T15:33:17.052Z,4.60
2018-11-07T15:35:46.791Z,5.10
2018-11-07T15:38:15.172Z,8.00
2018-11-07T15:40:43.529Z,5.83
2018-11-07T15:43:11.977Z,6.67
2018-11-07T15:45:40.500Z,5.40
2018-11-07T15:48:09.187Z,9.17
2018-11-07T15:50:42.895Z,7.27
2018-11-07T15:53:11.280Z,5.70
2018-11-07T15:55:39.641Z,4.60
2018-11-07T15:58:07.999Z,6.10
2018-11-07T16:00:36.365Z,3.70
2018-11-07T16:03:04.904Z,4.47
2018-11-07T16:05:33.698Z,4.70
2018-11-07T16:08:03.507Z,10.90
2018-11-07T16:10:31.921Z,4.80
2018-11-07T16:13:00.334Z,4.53
2018-11-07T16:15:28.961Z,6.00
2018-11-07T16:17:57.442Z,3.87
2018-11-07T16:20:25.846Z,4.40
2018-11-07T16:22:54.314Z,4.20
2018-11-07T16:25:22.899Z,7.20
2018-11-07T16:27:51.534Z,6.40
2018-11-07T16:30:20.690Z,3.57
2018-11-07T16:32:49.076Z,5.07
2018-11-07T16:35:17.485Z,6.20
2018-11-07T16:37:45.937Z,2.47
2018-11-07T16:40:15.853Z,6.37
2018-11-07T16:42:44.639Z,4.40
2018-11-07T16:45:13.934Z,4.70
2018-11-07T16:47:42.626Z,5.53
2018-11-07T16:50:12.315Z,6.70
2018-11-07T16:52:40.745Z,5.70
2018-11-07T16:55:09.270Z,7.63
2018-11-07T16:57:38.207Z,7.70
2018-11-07T17:00:12.369Z,7.43
2018-11-07T17:02:41.057Z,4.40
2018-11-07T17:05:09.961Z,6.67
2018-11-07T17:07:38.646Z,6.87
2018-11-07T17:10:07.705Z,6.00
2018-11-07T17:12:36.062Z,9.00
2018-11-07T17:15:04.619Z,5.93
2018-11-07T17:17:32.990Z,6.60
2018-11-07T17:20:02.642Z,5.07
2018-11-07T17:22:31.016Z,6.77
2018-11-07T17:24:59.401Z,5.97
2018-11-07T17:27:27.775Z,7.67
2018-11-07T17:29:56.182Z,7.17
2018-11-07T17:32:24.592Z,7.77
2018-11-07T17:34:52.974Z,6.87
2018-11-07T17:37:21.432Z,9.47
2018-11-07T17:39:49.819Z,9.77
2018-11-07T17:42:18.208Z,12.13
2018-11-07T17:44:46.576Z,6.43
2018-11-07T17:47:14.987Z,6.97
2018-11-07T17:49:43.361Z,7.90
2018-11-07T17:52:11.730Z,6.70
2018-11-07T17:54:40.117Z,9.33
2018-11-07T17:57:08.581Z,7.97
2018-11-07T17:59:36.994Z,10.57
2018-11-07T18:02:05.910Z,6.63
2018-11-07T18:04:34.321Z,6.67
2018-11-07T18:07:02.747Z,7.53
2018-11-07T18:09:31.179Z,9.10
2018-11-07T18:11:59.725Z,7.57
2018-11-07T18:14:28.113Z,10.10
2018-11-07T18:16:56.489Z,8.13
2018-11-07T18:19:24.893Z,8.93
2018-11-07T18:21:53.477Z,6.60
2018-11-07T18:24:21.852Z,13.90
2018-11-07T18:26:50.232Z,10.67
2018-11-07T18:29:18.609Z,12.47
2018-11-07T18:31:46.984Z,8.20
2018-11-07T18:34:15.346Z,12.27
2018-11-07T18:36:43.728Z,11.23
2018-11-07T18:39:12.558Z,8.37
2018-11-07T18:41:41.092Z,8.67
2018-11-07T18:44:09.609Z,8.63
2018-11-07T18:46:38.253Z,9.90
2018-11-07T18:49:06.610Z,15.00
2018-11-07T18:51:35.266Z,12.77
2018-11-07T18:54:03.806Z,7.53
2018-11-07T18:56:32.160Z,9.93
2018-11-07T18:59:00.718Z,11.00
2018-11-07T19:01:29.180Z,10.27
2018-11-07T19:03:57.553Z,14.20
2018-11-07T19:06:25.970Z,7.67
2018-11-07T19:08:54.494Z,10.77
2018-11-07T19:11:22.896Z,7.47
2018-11-07T19:13:51.262Z,12.90
2018-11-07T19:16:19.729Z,8.50
2018-11-07T19:18:48.110Z,8.27
2018-11-07T19:21:16.507Z,18.23
2018-11-07T19:23:45.154Z,41.70
2018-11-07T19:26:13.755Z,26.97
2018-11-07T19:28:42.139Z,60.53
2018-11-07T19:31:10.525Z,12.83
2018-11-07T19:33:39.273Z,14.10
2018-11-07T19:36:07.659Z,13.77
2018-11-07T19:38:36.061Z,15.20
2018-11-07T19:41:04.612Z,15.17
2018-11-07T19:43:33.018Z,11.73
2018-11-07T19:46:01.435Z,12.07
2018-11-07T19:48:29.803Z,7.43
2018-11-07T19:50:58.159Z,8.93
2018-11-07T19:53:28.287Z,12.03
2018-11-07T19:55:56.775Z,12.70
2018-11-07T19:58:25.176Z,17.87
2018-11-07T20:00:53.678Z,13.20
2018-11-07T20:03:22.845Z,10.87
2018-11-07T20:05:51.236Z,9.73
2018-11-07T20:08:19.853Z,10.63
2018-11-07T20:10:48.247Z,11.57
2018-11-07T20:13:16.820Z,6.13
2018-11-07T20:15:45.212Z,9.97
2018-11-07T20:18:13.577Z,9.07
2018-11-07T20:20:41.968Z,9.27
2018-11-07T20:23:10.413Z,14.03
2018-11-07T20:25:38.927Z,10.10
2018-11-07T20:28:07.306Z,7.20
2018-11-07T20:30:35.665Z,7.27
2018-11-07T20:33:04.032Z,8.60
2018-11-07T20:35:32.473Z,8.30
2018-11-07T20:38:00.971Z,9.20
2018-11-07T20:40:29.361Z,12.57
2018-11-07T20:42:57.765Z,8.40
2018-11-07T20:45:26.192Z,11.27
2018-11-07T20:47:55.085Z,11.17
2018-11-07T20:50:23.650Z,13.50
2018-11-07T20:52:52.057Z,7.57
2018-11-07T20:55:20.417Z,9.03
2018-11-07T20:57:48.803Z,10.57
2018-11-07T21:00:22.054Z,15.67
2018-11-07T21:02:50.594Z,15.20
2018-11-07T21:05:18.966Z,12.70
2018-11-07T21:07:47.418Z,11.57
2018-11-07T21:10:20.752Z,16.20
2018-11-07T21:12:49.578Z,9.87
2018-11-07T21:15:18.968Z,13.70
2018-11-07T21:17:47.714Z,11.93
2018-11-07T21:20:16.204Z,10.50
2018-11-07T21:22:44.644Z,15.57
2018-11-07T21:25:13.360Z,10.67
2018-11-07T21:27:41.790Z,9.73
2018-11-07T21:30:11.352Z,15.40
2018-11-07T21:32:40.034Z,20.53
2018-11-07T21:35:08.600Z,15.80
2018-11-07T21:37:37.402Z,13.50
2018-11-07T21:40:07.926Z,13.20
2018-11-07T21:42:36.288Z,11.20
2018-11-07T21:45:05.156Z,10.80
2018-11-07T21:47:33.576Z,12.73
2018-11-07T21:50:01.982Z,10.67
2018-11-07T21:52:30.355Z,12.50
2018-11-07T21:54:58.830Z,11.47
2018-11-07T21:57:27.234Z,10.77
2018-11-07T21:59:55.686Z,15.40
2018-11-07T22:02:24.194Z,11.40
2018-11-07T22:04:52.612Z,12.73
2018-11-07T22:07:21.071Z,12.40
2018-11-07T22:09:49.535Z,14.73
2018-11-07T22:12:17.897Z,14.10
2018-11-07T22:14:46.489Z,14.27
2018-11-07T22:17:14.927Z,12.90
2018-11-07T22:19:43.349Z,17.93
2018-11-07T22:22:11.727Z,10.20
2018-11-07T22:24:40.101Z,14.37
2018-11-07T22:27:08.514Z,16.00
2018-11-07T22:29:36.893Z,10.37
2018-11-07T22:32:05.299Z,17.10
2018-11-07T22:34:33.693Z,16.77
2018-11-07T22:37:02.091Z,14.57
2018-11-07T22:39:30.483Z,17.00
2018-11-07T22:41:58.879Z,15.37
2018-11-07T22:44:27.226Z,18.77
2018-11-07T22:46:55.685Z,16.57
2018-11-07T22:49:24.048Z,18.03
2018-11-07T22:51:52.424Z,17.67
2018-11-07T22:54:20.832Z,16.97
2018-11-07T22:56:49.201Z,16.27
2018-11-07T22:59:17.566Z,13.17
2018-11-07T23:01:45.952Z,15.80
2018-11-07T23:04:14.632Z,16.90
2018-11-07T23:06:42.984Z,19.73
2018-11-07T23:09:13.686Z,16.77
2018-11-07T23:11:43.956Z,18.17
2018-11-07T23:14:14.399Z,18.70
2018-11-07T23:16:43.504Z,18.23
2018-11-07T23:19:12.399Z,14.67
2018-11-07T23:21:40.940Z,18.93
2018-11-07T23:24:09.322Z,14.43
2018-11-07T23:26:37.689Z,14.40
2018-11-07T23:29:06.082Z,17.00
2018-11-07T23:31:34.506Z,17.40
2018-11-07T23:34:02.934Z,13.37
2018-11-07T23:36:31.336Z,16.10
2018-11-07T23:38:59.743Z,16.63
2018-11-07T23:41:28.125Z,15.40
2018-11-07T23:43:56.483Z,17.53
2018-11-07T23:46:24.918Z,15.60
2018-11-07T23:48:53.287Z,13.40
2018-11-07T23:51:21.681Z,12.97
2018-11-07T23:53:50.063Z,16.40
2018-11-07T23:56:18.459Z,12.50
2018-11-07T23:58:46.824Z,13.77
